sensor_id;sensor_type;location;lat;lon;timestamp;P1;durP1;ratioP1;P2;durP2;ratioP2
17482;SDS011;8858;52.308;20.994;2024-03-08T00:00:32;68.80;;;38.47;;
17482;SDS011;8858;52.308;20.994;2024-03-08T00:03:02;68.20;;;38.13;;
17482;SDS011;8858;52.308;20.994;2024-03-08T00:05:33;66.40;;;38.40;;
17482;SDS011;8858;52.308;20.994;2024-03-08T00:08:03;66.27;;;39.63;;
17482;SDS011;8858;52.308;20.994;2024-03-08T00:10:32;65.43;;;37.60;;
17482;SDS011;8858;52.308;20.994;2024-03-08T00:13:05;64.03;;;37.23;;
17482;SDS011;8858;52.308;20.994;2024-03-08T00:15:34;69.47;;;38.30;;
17482;SDS011;8858;52.308;20.994;2024-03-08T00:18:02;72.10;;;38.97;;
17482;SDS011;8858;52.308;20.994;2024-03-08T00:20:32;67.23;;;39.40;;
17482;SDS011;8858;52.308;20.994;2024-03-08T00:23:02;70.70;;;38.83;;
17482;SDS011;8858;52.308;20.994;2024-03-08T00:25:34;69.60;;;38.97;;
17482;SDS011;8858;52.308;20.994;2024-03-08T00:28:03;67.77;;;40.10;;
17482;SDS011;8858;52.308;20.994;2024-03-08T00:30:33;85.03;;;43.10;;
17482;SDS011;8858;52.308;20.994;2024-03-08T00:33:01;88.17;;;44.43;;
17482;SDS011;8858;52.308;20.994;2024-03-08T00:35:31;103.20;;;47.43;;
17482;SDS011;8858;52.308;20.994;2024-03-08T00:38:01;82.60;;;45.97;;
17482;SDS011;8858;52.308;20.994;2024-03-08T00:40:29;87.20;;;45.27;;
17482;SDS011;8858;52.308;20.994;2024-03-08T00:42:58;81.20;;;43.90;;
17482;SDS011;8858;52.308;20.994;2024-03-08T00:45:26;90.03;;;45.23;;
17482;SDS011;8858;52.308;20.994;2024-03-08T00:47:54;79.63;;;41.67;;
17482;SDS011;8858;52.308;20.994;2024-03-08T00:50:23;73.77;;;41.90;;
17482;SDS011;8858;52.308;20.994;2024-03-08T00:52:56;71.67;;;40.40;;
17482;SDS011;8858;52.308;20.994;2024-03-08T00:55:25;69.37;;;40.73;;
17482;SDS011;8858;52.308;20.994;2024-03-08T00:57:53;76.30;;;40.80;;
17482;SDS011;8858;52.308;20.994;2024-03-08T01:00:21;78.90;;;41.77;;
17482;SDS011;8858;52.308;20.994;2024-03-08T01:02:50;75.03;;;41.43;;
17482;SDS011;8858;52.308;20.994;2024-03-08T01:05:21;81.73;;;42.13;;
17482;SDS011;8858;52.308;20.994;2024-03-08T01:07:51;78.57;;;41.60;;
17482;SDS011;8858;52.308;20.994;2024-03-08T01:10:21;74.93;;;41.43;;
17482;SDS011;8858;52.308;20.994;2024-03-08T01:12:49;74.70;;;41.70;;
17482;SDS011;8858;52.308;20.994;2024-03-08T01:15:19;73.80;;;42.30;;
17482;SDS011;8858;52.308;20.994;2024-03-08T01:18:10;70.13;;;38.87;;
17482;SDS011;8858;52.308;20.994;2024-03-08T01:20:38;67.50;;;39.10;;
17482;SDS011;8858;52.308;20.994;2024-03-08T01:23:08;69.03;;;38.50;;
17482;SDS011;8858;52.308;20.994;2024-03-08T01:25:37;72.60;;;42.53;;
17482;SDS011;8858;52.308;20.994;2024-03-08T01:28:06;81.20;;;42.77;;
17482;SDS011;8858;52.308;20.994;2024-03-08T01:30:36;69.77;;;40.50;;
17482;SDS011;8858;52.308;20.994;2024-03-08T01:33:05;79.10;;;40.60;;
17482;SDS011;8858;52.308;20.994;2024-03-08T01:35:33;72.20;;;39.27;;
17482;SDS011;8858;52.308;20.994;2024-03-08T01:38:01;72.47;;;40.37;;
17482;SDS011;8858;52.308;20.994;2024-03-08T01:40:35;76.17;;;39.03;;
17482;SDS011;8858;52.308;20.994;2024-03-08T01:43:17;68.60;;;39.83;;
17482;SDS011;8858;52.308;20.994;2024-03-08T01:45:46;65.47;;;38.47;;
17482;SDS011;8858;52.308;20.994;2024-03-08T01:48:16;75.77;;;40.73;;
17482;SDS011;8858;52.308;20.994;2024-03-08T01:50:51;71.57;;;38.60;;
17482;SDS011;8858;52.308;20.994;2024-03-08T01:53:21;69.40;;;38.93;;
17482;SDS011;8858;52.308;20.994;2024-03-08T01:55:52;66.00;;;37.87;;
17482;SDS011;8858;52.308;20.994;2024-03-08T01:58:29;63.10;;;38.63;;
17482;SDS011;8858;52.308;20.994;2024-03-08T02:01:20;69.93;;;39.30;;
17482;SDS011;8858;52.308;20.994;2024-03-08T02:04:20;67.27;;;38.00;;
17482;SDS011;8858;52.308;20.994;2024-03-08T02:07:07;67.63;;;38.17;;
17482;SDS011;8858;52.308;20.994;2024-03-08T02:09:38;67.83;;;38.80;;
17482;SDS011;8858;52.308;20.994;2024-03-08T02:12:10;71.33;;;39.10;;
17482;SDS011;8858;52.308;20.994;2024-03-08T02:14:41;66.90;;;39.10;;
17482;SDS011;8858;52.308;20.994;2024-03-08T02:17:11;64.90;;;39.10;;
17482;SDS011;8858;52.308;20.994;2024-03-08T02:19:40;69.53;;;38.97;;
17482;SDS011;8858;52.308;20.994;2024-03-08T02:22:13;78.83;;;41.03;;
17482;SDS011;8858;52.308;20.994;2024-03-08T02:24:44;74.10;;;39.87;;
17482;SDS011;8858;52.308;20.994;2024-03-08T02:27:13;70.27;;;39.70;;
17482;SDS011;8858;52.308;20.994;2024-03-08T02:29:45;70.30;;;40.33;;
17482;SDS011;8858;52.308;20.994;2024-03-08T02:32:17;71.63;;;40.67;;
17482;SDS011;8858;52.308;20.994;2024-03-08T02:34:46;75.33;;;40.80;;
17482;SDS011;8858;52.308;20.994;2024-03-08T02:37:16;77.13;;;41.00;;
17482;SDS011;8858;52.308;20.994;2024-03-08T02:39:48;73.43;;;41.13;;
17482;SDS011;8858;52.308;20.994;2024-03-08T02:42:17;66.87;;;38.70;;
17482;SDS011;8858;52.308;20.994;2024-03-08T02:44:46;64.23;;;39.50;;
17482;SDS011;8858;52.308;20.994;2024-03-08T02:47:15;65.93;;;41.43;;
17482;SDS011;8858;52.308;20.994;2024-03-08T02:49:43;72.33;;;42.07;;
17482;SDS011;8858;52.308;20.994;2024-03-08T02:52:12;65.80;;;40.03;;
17482;SDS011;8858;52.308;20.994;2024-03-08T02:54:42;72.53;;;40.77;;
17482;SDS011;8858;52.308;20.994;2024-03-08T02:57:13;73.43;;;41.53;;
17482;SDS011;8858;52.308;20.994;2024-03-08T02:59:42;70.63;;;40.27;;
17482;SDS011;8858;52.308;20.994;2024-03-08T03:02:11;71.03;;;40.87;;
17482;SDS011;8858;52.308;20.994;2024-03-08T03:04:39;65.60;;;39.00;;
17482;SDS011;8858;52.308;20.994;2024-03-08T03:07:08;68.20;;;40.73;;
17482;SDS011;8858;52.308;20.994;2024-03-08T03:09:37;75.53;;;42.17;;
17482;SDS011;8858;52.308;20.994;2024-03-08T03:12:08;69.63;;;40.93;;
17482;SDS011;8858;52.308;20.994;2024-03-08T03:14:36;72.77;;;43.17;;
17482;SDS011;8858;52.308;20.994;2024-03-08T03:17:05;70.37;;;43.00;;
17482;SDS011;8858;52.308;20.994;2024-03-08T03:19:37;71.17;;;41.93;;
17482;SDS011;8858;52.308;20.994;2024-03-08T03:22:09;73.77;;;42.33;;
17482;SDS011;8858;52.308;20.994;2024-03-08T03:24:37;72.43;;;42.20;;
17482;SDS011;8858;52.308;20.994;2024-03-08T03:27:06;71.47;;;42.20;;
17482;SDS011;8858;52.308;20.994;2024-03-08T03:30:03;72.90;;;41.77;;
17482;SDS011;8858;52.308;20.994;2024-03-08T03:32:48;72.17;;;42.20;;
17482;SDS011;8858;52.308;20.994;2024-03-08T03:35:18;69.07;;;41.53;;
17482;SDS011;8858;52.308;20.994;2024-03-08T03:37:47;70.80;;;40.73;;
17482;SDS011;8858;52.308;20.994;2024-03-08T03:40:28;76.97;;;42.73;;
17482;SDS011;8858;52.308;20.994;2024-03-08T03:42:59;71.87;;;42.70;;
17482;SDS011;8858;52.308;20.994;2024-03-08T03:45:27;78.80;;;42.93;;
17482;SDS011;8858;52.308;20.994;2024-03-08T03:47:55;74.33;;;40.10;;
17482;SDS011;8858;52.308;20.994;2024-03-08T03:50:25;69.80;;;40.90;;
17482;SDS011;8858;52.308;20.994;2024-03-08T03:52:53;70.73;;;39.77;;
17482;SDS011;8858;52.308;20.994;2024-03-08T03:55:22;70.73;;;41.33;;
17482;SDS011;8858;52.308;20.994;2024-03-08T03:57:51;65.40;;;39.93;;
17482;SDS011;8858;52.308;20.994;2024-03-08T04:00:21;72.33;;;41.23;;
17482;SDS011;8858;52.308;20.994;2024-03-08T04:02:54;72.53;;;41.17;;
17482;SDS011;8858;52.308;20.994;2024-03-08T04:05:26;76.63;;;42.03;;
17482;SDS011;8858;52.308;20.994;2024-03-08T04:07:55;69.77;;;40.67;;
17482;SDS011;8858;52.308;20.994;2024-03-08T04:10:25;74.43;;;41.87;;
17482;SDS011;8858;52.308;20.994;2024-03-08T04:12:56;67.70;;;41.60;;
17482;SDS011;8858;52.308;20.994;2024-03-08T04:15:26;63.87;;;39.20;;
17482;SDS011;8858;52.308;20.994;2024-03-08T04:17:55;72.53;;;41.23;;
17482;SDS011;8858;52.308;20.994;2024-03-08T04:20:27;67.67;;;38.97;;
17482;SDS011;8858;52.308;20.994;2024-03-08T04:22:56;74.87;;;41.47;;
17482;SDS011;8858;52.308;20.994;2024-03-08T04:25:24;67.83;;;40.10;;
17482;SDS011;8858;52.308;20.994;2024-03-08T04:27:54;70.43;;;41.07;;
17482;SDS011;8858;52.308;20.994;2024-03-08T04:30:23;70.33;;;40.50;;
17482;SDS011;8858;52.308;20.994;2024-03-08T04:32:52;67.40;;;39.67;;
17482;SDS011;8858;52.308;20.994;2024-03-08T04:35:22;64.60;;;38.33;;
17482;SDS011;8858;52.308;20.994;2024-03-08T04:37:53;64.63;;;39.50;;
17482;SDS011;8858;52.308;20.994;2024-03-08T04:40:24;72.43;;;41.17;;
17482;SDS011;8858;52.308;20.994;2024-03-08T04:42:52;68.57;;;40.43;;
17482;SDS011;8858;52.308;20.994;2024-03-08T04:45:20;65.53;;;38.80;;
17482;SDS011;8858;52.308;20.994;2024-03-08T04:47:49;69.87;;;40.13;;
17482;SDS011;8858;52.308;20.994;2024-03-08T04:50:23;70.10;;;39.07;;
17482;SDS011;8858;52.308;20.994;2024-03-08T04:52:56;66.47;;;38.80;;
17482;SDS011;8858;52.308;20.994;2024-03-08T04:55:24;65.83;;;39.57;;
17482;SDS011;8858;52.308;20.994;2024-03-08T04:57:53;70.03;;;40.23;;
17482;SDS011;8858;52.308;20.994;2024-03-08T05:00:22;69.57;;;39.13;;
17482;SDS011;8858;52.308;20.994;2024-03-08T05:02:50;71.93;;;40.23;;
17482;SDS011;8858;52.308;20.994;2024-03-08T05:05:20;74.23;;;39.60;;
17482;SDS011;8858;52.308;20.994;2024-03-08T05:07:51;72.77;;;39.00;;
17482;SDS011;8858;52.308;20.994;2024-03-08T05:10:20;73.57;;;39.60;;
17482;SDS011;8858;52.308;20.994;2024-03-08T05:12:48;69.93;;;39.47;;
17482;SDS011;8858;52.308;20.994;2024-03-08T05:15:20;71.43;;;39.27;;
17482;SDS011;8858;52.308;20.994;2024-03-08T05:17:50;85.60;;;43.47;;
17482;SDS011;8858;52.308;20.994;2024-03-08T05:20:19;83.37;;;41.50;;
17482;SDS011;8858;52.308;20.994;2024-03-08T05:22:48;81.77;;;42.80;;
17482;SDS011;8858;52.308;20.994;2024-03-08T05:25:19;74.40;;;40.70;;
17482;SDS011;8858;52.308;20.994;2024-03-08T05:27:47;93.37;;;43.73;;
17482;SDS011;8858;52.308;20.994;2024-03-08T05:30:15;89.30;;;43.27;;
17482;SDS011;8858;52.308;20.994;2024-03-08T05:32:44;90.30;;;40.70;;
17482;SDS011;8858;52.308;20.994;2024-03-08T05:35:17;87.70;;;42.30;;
17482;SDS011;8858;52.308;20.994;2024-03-08T05:37:45;82.77;;;42.20;;
17482;SDS011;8858;52.308;20.994;2024-03-08T05:40:15;85.27;;;41.00;;
17482;SDS011;8858;52.308;20.994;2024-03-08T05:42:46;97.07;;;41.13;;
17482;SDS011;8858;52.308;20.994;2024-03-08T05:45:18;81.00;;;42.27;;
17482;SDS011;8858;52.308;20.994;2024-03-08T05:47:46;84.47;;;42.00;;
17482;SDS011;8858;52.308;20.994;2024-03-08T05:50:17;104.30;;;44.97;;
17482;SDS011;8858;52.308;20.994;2024-03-08T05:52:46;96.13;;;43.97;;
17482;SDS011;8858;52.308;20.994;2024-03-08T05:55:16;83.30;;;44.53;;
17482;SDS011;8858;52.308;20.994;2024-03-08T05:57:49;83.87;;;42.60;;
17482;SDS011;8858;52.308;20.994;2024-03-08T06:00:17;87.23;;;43.80;;
17482;SDS011;8858;52.308;20.994;2024-03-08T06:02:45;90.23;;;44.17;;
17482;SDS011;8858;52.308;20.994;2024-03-08T06:05:14;79.03;;;42.13;;
17482;SDS011;8858;52.308;20.994;2024-03-08T06:07:42;71.77;;;40.50;;
17482;SDS011;8858;52.308;20.994;2024-03-08T06:10:11;77.87;;;41.70;;
17482;SDS011;8858;52.308;20.994;2024-03-08T06:12:42;72.77;;;39.50;;
17482;SDS011;8858;52.308;20.994;2024-03-08T06:15:12;81.23;;;43.50;;
17482;SDS011;8858;52.308;20.994;2024-03-08T06:17:42;90.07;;;44.80;;
17482;SDS011;8858;52.308;20.994;2024-03-08T06:20:11;78.23;;;43.23;;
17482;SDS011;8858;52.308;20.994;2024-03-08T06:22:40;76.93;;;43.20;;
17482;SDS011;8858;52.308;20.994;2024-03-08T06:25:09;82.33;;;43.77;;
17482;SDS011;8858;52.308;20.994;2024-03-08T06:27:37;73.57;;;43.07;;
17482;SDS011;8858;52.308;20.994;2024-03-08T06:30:08;70.47;;;41.80;;
17482;SDS011;8858;52.308;20.994;2024-03-08T06:32:37;76.60;;;43.27;;
17482;SDS011;8858;52.308;20.994;2024-03-08T06:35:06;75.83;;;42.63;;
17482;SDS011;8858;52.308;20.994;2024-03-08T06:37:37;83.63;;;41.77;;
17482;SDS011;8858;52.308;20.994;2024-03-08T06:40:11;75.63;;;44.10;;
17482;SDS011;8858;52.308;20.994;2024-03-08T06:42:43;82.97;;;45.43;;
17482;SDS011;8858;52.308;20.994;2024-03-08T06:45:14;84.40;;;45.10;;
17482;SDS011;8858;52.308;20.994;2024-03-08T06:47:47;79.10;;;45.33;;
17482;SDS011;8858;52.308;20.994;2024-03-08T06:50:17;76.03;;;45.43;;
17482;SDS011;8858;52.308;20.994;2024-03-08T06:52:47;76.43;;;42.70;;
17482;SDS011;8858;52.308;20.994;2024-03-08T06:55:20;75.00;;;41.87;;
17482;SDS011;8858;52.308;20.994;2024-03-08T06:57:48;69.77;;;40.67;;
17482;SDS011;8858;52.308;20.994;2024-03-08T07:00:22;68.87;;;40.03;;
17482;SDS011;8858;52.308;20.994;2024-03-08T07:02:53;69.83;;;40.03;;
17482;SDS011;8858;52.308;20.994;2024-03-08T07:05:21;72.87;;;38.30;;
17482;SDS011;8858;52.308;20.994;2024-03-08T07:07:54;67.43;;;37.00;;
17482;SDS011;8858;52.308;20.994;2024-03-08T07:10:24;68.60;;;37.57;;
17482;SDS011;8858;52.308;20.994;2024-03-08T07:12:52;61.10;;;36.33;;
17482;SDS011;8858;52.308;20.994;2024-03-08T07:15:22;61.47;;;35.83;;
17482;SDS011;8858;52.308;20.994;2024-03-08T07:17:50;53.00;;;32.60;;
17482;SDS011;8858;52.308;20.994;2024-03-08T07:20:20;53.73;;;30.10;;
17482;SDS011;8858;52.308;20.994;2024-03-08T07:22:50;44.20;;;27.50;;
17482;SDS011;8858;52.308;20.994;2024-03-08T07:25:19;44.10;;;27.10;;
17482;SDS011;8858;52.308;20.994;2024-03-08T07:27:49;51.03;;;29.73;;
17482;SDS011;8858;52.308;20.994;2024-03-08T07:30:18;51.43;;;29.03;;
17482;SDS011;8858;52.308;20.994;2024-03-08T07:33:11;48.70;;;31.00;;
17482;SDS011;8858;52.308;20.994;2024-03-08T07:35:40;55.03;;;29.33;;
17482;SDS011;8858;52.308;20.994;2024-03-08T07:38:15;46.83;;;27.57;;
17482;SDS011;8858;52.308;20.994;2024-03-08T07:40:43;45.73;;;28.23;;
17482;SDS011;8858;52.308;20.994;2024-03-08T07:43:13;49.90;;;30.50;;
17482;SDS011;8858;52.308;20.994;2024-03-08T07:45:41;53.37;;;31.90;;
17482;SDS011;8858;52.308;20.994;2024-03-08T07:48:11;43.20;;;28.97;;
17482;SDS011;8858;52.308;20.994;2024-03-08T07:50:44;52.97;;;29.83;;
17482;SDS011;8858;52.308;20.994;2024-03-08T07:53:12;47.73;;;29.27;;
17482;SDS011;8858;52.308;20.994;2024-03-08T07:55:42;44.53;;;25.97;;
17482;SDS011;8858;52.308;20.994;2024-03-08T07:58:11;42.07;;;25.87;;
17482;SDS011;8858;52.308;20.994;2024-03-08T08:00:40;42.20;;;25.13;;
17482;SDS011;8858;52.308;20.994;2024-03-08T08:03:13;48.13;;;29.47;;
17482;SDS011;8858;52.308;20.994;2024-03-08T08:05:42;41.30;;;25.13;;
17482;SDS011;8858;52.308;20.994;2024-03-08T08:08:12;38.47;;;23.23;;
17482;SDS011;8858;52.308;20.994;2024-03-08T08:10:43;33.07;;;21.93;;
17482;SDS011;8858;52.308;20.994;2024-03-08T08:13:11;38.77;;;23.67;;
17482;SDS011;8858;52.308;20.994;2024-03-08T08:15:39;38.63;;;20.90;;
17482;SDS011;8858;52.308;20.994;2024-03-08T08:18:07;32.53;;;20.47;;
17482;SDS011;8858;52.308;20.994;2024-03-08T08:20:38;40.97;;;18.93;;
17482;SDS011;8858;52.308;20.994;2024-03-08T08:23:06;36.73;;;21.37;;
17482;SDS011;8858;52.308;20.994;2024-03-08T08:25:35;35.30;;;20.53;;
17482;SDS011;8858;52.308;20.994;2024-03-08T08:28:04;36.13;;;18.63;;
17482;SDS011;8858;52.308;20.994;2024-03-08T08:30:32;34.33;;;17.57;;
17482;SDS011;8858;52.308;20.994;2024-03-08T08:33:01;43.07;;;19.90;;
17482;SDS011;8858;52.308;20.994;2024-03-08T08:35:31;29.57;;;19.33;;
17482;SDS011;8858;52.308;20.994;2024-03-08T08:38:01;34.07;;;19.30;;
17482;SDS011;8858;52.308;20.994;2024-03-08T08:40:30;30.77;;;18.77;;
17482;SDS011;8858;52.308;20.994;2024-03-08T08:43:02;31.33;;;18.07;;
17482;SDS011;8858;52.308;20.994;2024-03-08T08:45:31;31.07;;;18.73;;
17482;SDS011;8858;52.308;20.994;2024-03-08T08:48:00;37.50;;;19.37;;
17482;SDS011;8858;52.308;20.994;2024-03-08T08:50:29;26.77;;;18.00;;
17482;SDS011;8858;52.308;20.994;2024-03-08T08:52:57;20.17;;;11.70;;
17482;SDS011;8858;52.308;20.994;2024-03-08T08:55:30;21.37;;;11.73;;
17482;SDS011;8858;52.308;20.994;2024-03-08T08:57:58;17.83;;;13.17;;
17482;SDS011;8858;52.308;20.994;2024-03-08T09:00:26;17.47;;;13.00;;
17482;SDS011;8858;52.308;20.994;2024-03-08T09:02:57;18.57;;;12.47;;
17482;SDS011;8858;52.308;20.994;2024-03-08T09:05:25;22.97;;;11.30;;
17482;SDS011;8858;52.308;20.994;2024-03-08T09:07:54;13.63;;;8.83;;
17482;SDS011;8858;52.308;20.994;2024-03-08T09:10:23;11.77;;;8.77;;
17482;SDS011;8858;52.308;20.994;2024-03-08T09:12:55;15.37;;;9.47;;
17482;SDS011;8858;52.308;20.994;2024-03-08T09:15:24;14.50;;;9.87;;
17482;SDS011;8858;52.308;20.994;2024-03-08T09:17:58;15.93;;;10.07;;
17482;SDS011;8858;52.308;20.994;2024-03-08T09:20:26;14.60;;;10.27;;
17482;SDS011;8858;52.308;20.994;2024-03-08T09:22:55;13.50;;;10.13;;
17482;SDS011;8858;52.308;20.994;2024-03-08T09:25:23;17.30;;;10.77;;
17482;SDS011;8858;52.308;20.994;2024-03-08T09:27:53;13.57;;;10.17;;
17482;SDS011;8858;52.308;20.994;2024-03-08T09:30:26;12.97;;;9.73;;
17482;SDS011;8858;52.308;20.994;2024-03-08T09:32:55;14.10;;;10.50;;
17482;SDS011;8858;52.308;20.994;2024-03-08T09:35:26;16.70;;;10.73;;
17482;SDS011;8858;52.308;20.994;2024-03-08T09:37:55;13.63;;;9.50;;
17482;SDS011;8858;52.308;20.994;2024-03-08T09:40:29;12.03;;;9.93;;
17482;SDS011;8858;52.308;20.994;2024-03-08T09:42:58;14.27;;;10.00;;
17482;SDS011;8858;52.308;20.994;2024-03-08T09:45:29;13.97;;;9.00;;
17482;SDS011;8858;52.308;20.994;2024-03-08T09:48:03;14.47;;;9.13;;
17482;SDS011;8858;52.308;20.994;2024-03-08T09:50:33;13.10;;;8.93;;
17482;SDS011;8858;52.308;20.994;2024-03-08T09:53:02;12.00;;;9.43;;
17482;SDS011;8858;52.308;20.994;2024-03-08T09:55:30;11.07;;;8.97;;
17482;SDS011;8858;52.308;20.994;2024-03-08T09:58:02;12.57;;;8.33;;
17482;SDS011;8858;52.308;20.994;2024-03-08T10:00:51;13.23;;;10.07;;
17482;SDS011;8858;52.308;20.994;2024-03-08T10:03:19;11.27;;;8.87;;
17482;SDS011;8858;52.308;20.994;2024-03-08T10:05:51;11.37;;;9.17;;
17482;SDS011;8858;52.308;20.994;2024-03-08T10:08:20;15.00;;;9.40;;
17482;SDS011;8858;52.308;20.994;2024-03-08T10:10:48;14.80;;;9.63;;
17482;SDS011;8858;52.308;20.994;2024-03-08T10:13:20;12.93;;;10.10;;
17482;SDS011;8858;52.308;20.994;2024-03-08T10:15:49;16.50;;;10.67;;
17482;SDS011;8858;52.308;20.994;2024-03-08T10:18:21;13.07;;;9.40;;
17482;SDS011;8858;52.308;20.994;2024-03-08T10:21:02;14.63;;;9.77;;
17482;SDS011;8858;52.308;20.994;2024-03-08T10:23:31;12.73;;;8.97;;
17482;SDS011;8858;52.308;20.994;2024-03-08T10:26:10;12.53;;;9.50;;
17482;SDS011;8858;52.308;20.994;2024-03-08T10:28:43;14.30;;;9.60;;
17482;SDS011;8858;52.308;20.994;2024-03-08T10:31:14;14.77;;;10.00;;
17482;SDS011;8858;52.308;20.994;2024-03-08T10:33:45;14.57;;;9.73;;
17482;SDS011;8858;52.308;20.994;2024-03-08T10:36:14;16.33;;;11.60;;
17482;SDS011;8858;52.308;20.994;2024-03-08T10:38:43;16.57;;;11.17;;
17482;SDS011;8858;52.308;20.994;2024-03-08T10:41:14;15.23;;;11.13;;
17482;SDS011;8858;52.308;20.994;2024-03-08T10:43:52;14.73;;;10.80;;
17482;SDS011;8858;52.308;20.994;2024-03-08T10:46:38;15.73;;;11.20;;
17482;SDS011;8858;52.308;20.994;2024-03-08T10:49:23;17.37;;;11.90;;
17482;SDS011;8858;52.308;20.994;2024-03-08T10:51:58;15.67;;;11.13;;
17482;SDS011;8858;52.308;20.994;2024-03-08T10:54:26;18.43;;;12.27;;
17482;SDS011;8858;52.308;20.994;2024-03-08T10:57:01;14.37;;;11.90;;
17482;SDS011;8858;52.308;20.994;2024-03-08T10:59:36;17.87;;;11.10;;
17482;SDS011;8858;52.308;20.994;2024-03-08T11:02:07;14.43;;;11.47;;
17482;SDS011;8858;52.308;20.994;2024-03-08T11:04:36;16.50;;;11.20;;
17482;SDS011;8858;52.308;20.994;2024-03-08T11:07:05;15.40;;;10.90;;
17482;SDS011;8858;52.308;20.994;2024-03-08T11:09:35;15.73;;;11.83;;
17482;SDS011;8858;52.308;20.994;2024-03-08T11:12:18;14.17;;;10.87;;
17482;SDS011;8858;52.308;20.994;2024-03-08T11:14:51;15.23;;;11.80;;
17482;SDS011;8858;52.308;20.994;2024-03-08T11:17:21;17.27;;;11.03;;
17482;SDS011;8858;52.308;20.994;2024-03-08T11:19:58;16.37;;;11.37;;
17482;SDS011;8858;52.308;20.994;2024-03-08T11:22:29;14.53;;;11.10;;
17482;SDS011;8858;52.308;20.994;2024-03-08T11:25:03;16.17;;;11.33;;
17482;SDS011;8858;52.308;20.994;2024-03-08T11:27:38;13.70;;;10.40;;
17482;SDS011;8858;52.308;20.994;2024-03-08T11:30:08;13.80;;;10.60;;
17482;SDS011;8858;52.308;20.994;2024-03-08T11:32:44;17.50;;;11.17;;
17482;SDS011;8858;52.308;20.994;2024-03-08T11:35:17;13.83;;;10.83;;
17482;SDS011;8858;52.308;20.994;2024-03-08T11:37:47;19.10;;;10.87;;
17482;SDS011;8858;52.308;20.994;2024-03-08T11:40:16;13.77;;;10.63;;
17482;SDS011;8858;52.308;20.994;2024-03-08T11:42:46;13.53;;;10.13;;
17482;SDS011;8858;52.308;20.994;2024-03-08T11:45:17;14.30;;;10.60;;
17482;SDS011;8858;52.308;20.994;2024-03-08T11:47:48;15.50;;;11.03;;
17482;SDS011;8858;52.308;20.994;2024-03-08T11:50:18;18.63;;;11.10;;
17482;SDS011;8858;52.308;20.994;2024-03-08T11:52:48;13.10;;;10.07;;
17482;SDS011;8858;52.308;20.994;2024-03-08T11:55:16;13.10;;;10.00;;
17482;SDS011;8858;52.308;20.994;2024-03-08T11:57:50;13.03;;;10.03;;
17482;SDS011;8858;52.308;20.994;2024-03-08T12:00:28;15.70;;;10.93;;
17482;SDS011;8858;52.308;20.994;2024-03-08T12:03:03;15.33;;;10.30;;
17482;SDS011;8858;52.308;20.994;2024-03-08T12:05:32;17.37;;;10.37;;
17482;SDS011;8858;52.308;20.994;2024-03-08T12:08:02;14.23;;;10.27;;
17482;SDS011;8858;52.308;20.994;2024-03-08T12:10:32;13.40;;;10.13;;
17482;SDS011;8858;52.308;20.994;2024-03-08T12:13:02;18.03;;;10.53;;
17482;SDS011;8858;52.308;20.994;2024-03-08T12:15:41;11.60;;;9.30;;
17482;SDS011;8858;52.308;20.994;2024-03-08T12:18:11;14.73;;;10.03;;
17482;SDS011;8858;52.308;20.994;2024-03-08T12:20:39;13.43;;;9.87;;
17482;SDS011;8858;52.308;20.994;2024-03-08T12:23:14;13.80;;;9.57;;
17482;SDS011;8858;52.308;20.994;2024-03-08T12:25:44;13.90;;;9.87;;
17482;SDS011;8858;52.308;20.994;2024-03-08T12:28:14;12.63;;;9.00;;
17482;SDS011;8858;52.308;20.994;2024-03-08T12:30:47;11.80;;;9.33;;
17482;SDS011;8858;52.308;20.994;2024-03-08T12:33:17;12.93;;;9.80;;
17482;SDS011;8858;52.308;20.994;2024-03-08T12:35:52;11.97;;;9.87;;
17482;SDS011;8858;52.308;20.994;2024-03-08T12:38:23;12.63;;;9.47;;
17482;SDS011;8858;52.308;20.994;2024-03-08T12:40:57;10.97;;;8.93;;
17482;SDS011;8858;52.308;20.994;2024-03-08T12:43:28;15.77;;;9.57;;
17482;SDS011;8858;52.308;20.994;2024-03-08T12:45:59;12.20;;;9.77;;
17482;SDS011;8858;52.308;20.994;2024-03-08T12:48:28;17.03;;;9.60;;
17482;SDS011;8858;52.308;20.994;2024-03-08T12:51:01;11.53;;;9.30;;
17482;SDS011;8858;52.308;20.994;2024-03-08T12:53:29;12.50;;;9.90;;
17482;SDS011;8858;52.308;20.994;2024-03-08T12:56:01;14.80;;;9.73;;
17482;SDS011;8858;52.308;20.994;2024-03-08T12:58:35;12.03;;;9.60;;
17482;SDS011;8858;52.308;20.994;2024-03-08T13:01:06;12.20;;;9.00;;
17482;SDS011;8858;52.308;20.994;2024-03-08T13:03:37;13.20;;;8.80;;
17482;SDS011;8858;52.308;20.994;2024-03-08T13:06:06;15.30;;;9.40;;
17482;SDS011;8858;52.308;20.994;2024-03-08T13:08:35;12.00;;;8.50;;
17482;SDS011;8858;52.308;20.994;2024-03-08T13:11:07;18.00;;;9.93;;
17482;SDS011;8858;52.308;20.994;2024-03-08T13:13:38;13.57;;;9.70;;
17482;SDS011;8858;52.308;20.994;2024-03-08T13:16:08;15.13;;;9.10;;
17482;SDS011;8858;52.308;20.994;2024-03-08T13:18:37;13.40;;;9.43;;
17482;SDS011;8858;52.308;20.994;2024-03-08T13:21:06;13.20;;;9.10;;
17482;SDS011;8858;52.308;20.994;2024-03-08T13:23:36;11.57;;;8.83;;
17482;SDS011;8858;52.308;20.994;2024-03-08T13:26:06;15.43;;;9.90;;
17482;SDS011;8858;52.308;20.994;2024-03-08T13:28:35;11.47;;;9.60;;
17482;SDS011;8858;52.308;20.994;2024-03-08T13:31:04;13.80;;;9.90;;
17482;SDS011;8858;52.308;20.994;2024-03-08T13:33:38;13.67;;;9.50;;
17482;SDS011;8858;52.308;20.994;2024-03-08T13:36:09;15.87;;;10.73;;
17482;SDS011;8858;52.308;20.994;2024-03-08T13:38:42;12.27;;;9.47;;
17482;SDS011;8858;52.308;20.994;2024-03-08T13:41:10;13.53;;;10.10;;
17482;SDS011;8858;52.308;20.994;2024-03-08T13:43:41;12.60;;;9.47;;
17482;SDS011;8858;52.308;20.994;2024-03-08T13:46:10;12.40;;;9.70;;
17482;SDS011;8858;52.308;20.994;2024-03-08T13:48:41;12.07;;;9.00;;
17482;SDS011;8858;52.308;20.994;2024-03-08T13:51:09;13.33;;;10.57;;
17482;SDS011;8858;52.308;20.994;2024-03-08T13:53:41;15.27;;;9.87;;
17482;SDS011;8858;52.308;20.994;2024-03-08T13:56:10;13.60;;;10.17;;
17482;SDS011;8858;52.308;20.994;2024-03-08T13:58:38;15.40;;;10.23;;
17482;SDS011;8858;52.308;20.994;2024-03-08T14:01:08;18.97;;;10.13;;
17482;SDS011;8858;52.308;20.994;2024-03-08T14:03:39;15.13;;;9.80;;
17482;SDS011;8858;52.308;20.994;2024-03-08T14:06:10;14.50;;;10.07;;
17482;SDS011;8858;52.308;20.994;2024-03-08T14:08:49;20.07;;;10.17;;
17482;SDS011;8858;52.308;20.994;2024-03-08T14:11:17;14.03;;;10.07;;
17482;SDS011;8858;52.308;20.994;2024-03-08T14:13:47;14.03;;;9.47;;
17482;SDS011;8858;52.308;20.994;2024-03-08T14:16:16;12.63;;;10.00;;
17482;SDS011;8858;52.308;20.994;2024-03-08T14:18:45;13.73;;;10.00;;
17482;SDS011;8858;52.308;20.994;2024-03-08T14:21:14;13.90;;;9.67;;
17482;SDS011;8858;52.308;20.994;2024-03-08T14:23:43;15.50;;;10.33;;
17482;SDS011;8858;52.308;20.994;2024-03-08T14:26:12;17.50;;;9.83;;
17482;SDS011;8858;52.308;20.994;2024-03-08T14:28:41;13.40;;;9.73;;
17482;SDS011;8858;52.308;20.994;2024-03-08T14:31:10;13.33;;;10.10;;
17482;SDS011;8858;52.308;20.994;2024-03-08T14:33:38;14.77;;;10.37;;
17482;SDS011;8858;52.308;20.994;2024-03-08T14:36:09;14.47;;;10.13;;
17482;SDS011;8858;52.308;20.994;2024-03-08T14:38:42;13.30;;;10.30;;
17482;SDS011;8858;52.308;20.994;2024-03-08T14:41:11;16.57;;;10.77;;
17482;SDS011;8858;52.308;20.994;2024-03-08T14:43:41;12.90;;;9.77;;